Time;durP1;ratioP1;P1;durP2;ratioP2;P2;SDS_P1;SDS_P2;PMS_P1;PMS_P2;Temp;Humidity;BMP_temperature;BMP_pressure;BME280_temperature;BME280_humidity;BME280_pressure;Samples;Min_cycle;Max_cycle;Signal;HPM_P1;HPM_P2
2023/12/28 00:00:53;;;;;;;;;5.75;5.25;;;;;12.85;76.24;101127.75;5062295;28;45351;-64
2023/12/28 00:03:18;;;;;;;;;3.25;3.25;;;;;12.84;76.22;101127.81;5080326;28;45469;-65
2023/12/28 00:05:44;;;;;;;;;4.75;4.50;;;;;13.01;76.21;101148.63;5058618;28;47447;-64
2023/12/28 00:08:09;;;;;;;;;7.50;6.25;;;;;12.93;76.32;101132.81;5074577;28;45323;-64
2023/12/28 00:10:37;;;;;;;;;4.75;4.00;;;;;13.00;76.41;101152.22;5080465;28;45786;-64
2023/12/28 00:13:03;;;;;;;;;4.75;4.75;;;;;13.00;76.65;101152.22;5079994;28;45311;-64
2023/12/28 00:15:28;;;;;;;;;5.50;4.75;;;;;12.81;76.21;101111.84;5080082;27;46465;-65
2023/12/28 00:17:53;;;;;;;;;6.25;4.50;;;;;12.93;76.23;101130.13;5079898;28;45381;-64
2023/12/28 00:20:21;;;;;;;;;5.25;4.00;;;;;12.98;76.25;101144.28;5080156;27;45409;-64
2023/12/28 00:22:46;;;;;;;;;7.25;5.00;;;;;12.69;76.12;101105.13;5079711;28;45361;-64
2023/12/28 00:25:12;;;;;;;;;4.00;4.00;;;;;12.95;76.31;101149.75;5080030;27;46223;-64
2023/12/28 00:27:37;;;;;;;;;6.50;5.00;;;;;12.86;76.24;101132.16;5079718;28;45425;-64
2023/12/28 00:30:05;;;;;;;;;4.00;4.00;;;;;13.05;76.52;101158.34;5058571;28;46251;-65
2023/12/28 00:32:30;;;;;;;;;5.75;5.00;;;;;12.93;76.75;101139.06;5078781;28;45297;-65
2023/12/28 00:34:56;;;;;;;;;5.50;4.00;;;;;12.89;76.59;101121.34;5061530;28;47021;-64
2023/12/28 00:37:23;;;;;;;;;5.25;4.75;;;;;12.97;76.30;101137.16;5078217;28;45445;-65
2023/12/28 00:39:50;;;;;;;;;4.00;4.00;;;;;12.98;76.41;101139.78;5078254;28;45515;-65
2023/12/28 00:42:16;;;;;;;;;4.00;4.00;;;;;12.93;76.46;101119.41;5079462;28;45491;-65
2023/12/28 00:44:41;;;;;;;;;6.75;5.00;;;;;12.92;76.52;101131.94;5079671;28;46453;-65
2023/12/28 00:47:07;;;;;;;;;4.75;4.75;;;;;13.23;76.52;101163.03;5077783;28;45425;-64
2023/12/28 00:49:37;;;;;;;;;6.25;5.00;;;;;13.16;76.44;101151.66;5077804;28;45498;-64
2023/12/28 00:52:03;;;;;;;;;4.00;4.00;;;;;12.98;76.28;101136.25;5079520;28;45704;-65
2023/12/28 00:54:28;;;;;;;;;5.50;5.00;;;;;13.05;76.34;101132.41;5059907;28;47748;-64
2023/12/28 00:56:54;;;;;;;;;5.00;4.00;;;;;13.04;76.23;101137.81;5078874;28;45616;-65
2023/12/28 00:59:19;;;;;;;;;4.00;4.00;;;;;13.16;76.57;101150.75;5079301;28;45536;-64
2023/12/28 01:01:44;;;;;;;;;6.00;6.00;;;;;13.11;76.49;101147.38;5079289;28;45429;-65
2023/12/28 01:04:10;;;;;;;;;3.50;3.50;;;;;13.10;76.60;101151.88;5079684;28;45956;-64
2023/12/28 01:06:36;;;;;;;;;5.75;4.75;;;;;12.95;76.40;101128.31;5043979;28;45444;-64
2023/12/28 01:09:01;;;;;;;;;4.25;4.00;;;;;13.07;76.57;101145.75;5078517;28;45504;-64
2023/12/28 01:11:27;;;;;;;;;4.00;4.00;;;;;13.06;76.61;101138.63;5079156;27;45628;-64
2023/12/28 01:13:53;;;;;;;;;3.25;3.25;;;;;12.92;76.45;101117.69;5079371;28;46208;-65
2023/12/28 01:16:18;;;;;;;;;3.00;3.00;;;;;12.88;77.01;101114.25;5079117;27;45237;-65
2023/12/28 01:18:44;;;;;;;;;4.00;4.00;;;;;12.92;77.12;101115.88;5079588;28;45425;-64
2023/12/28 01:21:09;;;;;;;;;5.00;4.00;;;;;13.14;76.78;101157.97;5079023;28;45551;-64
2023/12/28 01:23:37;;;;;;;;;5.75;5.75;;;;;12.81;76.98;101103.81;5056948;28;47979;-64
2023/12/28 01:26:02;;;;;;;;;6.00;6.00;;;;;13.00;77.06;101138.84;5058449;28;45914;-64
2023/12/28 01:28:30;;;;;;;;;4.75;4.00;;;;;13.08;76.99;101163.56;5061166;28;45663;-65
2023/12/28 01:30:55;;;;;;;;;5.00;5.00;;;;;12.78;77.23;101107.47;5078892;28;45382;-64
2023/12/28 01:33:21;;;;;;;;;6.25;6.25;;;;;12.84;77.13;101117.09;5077686;28;47959;-64
2023/12/28 01:35:46;;;;;;;;;6.75;4.25;;;;;13.00;77.72;101145.09;5078820;28;45419;-65
2023/12/28 01:38:14;;;;;;;;;6.00;6.00;;;;;12.92;77.62;101125.72;5077833;28;45355;-65
2023/12/28 01:40:45;;;;;;;;;4.25;4.25;;;;;12.81;77.30;101104.66;5078707;28;45701;-64
2023/12/28 01:43:10;;;;;;;;;5.75;5.00;;;;;12.97;77.35;101134.47;5078811;28;45460;-64
2023/12/28 01:45:35;;;;;;;;;6.50;5.25;;;;;12.81;77.43;101111.84;5078606;28;45333;-64
2023/12/28 01:48:01;;;;;;;;;6.00;6.00;;;;;12.97;77.71;101137.16;5057277;28;45404;-64
2023/12/28 01:50:27;;;;;;;;;3.00;2.00;;;;;12.88;77.59;101127.66;5076489;28;45450;-64
2023/12/28 01:52:55;;;;;;;;;6.75;5.75;;;;;12.98;77.52;101157.69;5078840;28;46320;-64
2023/12/28 01:55:21;;;;;;;;;3.75;3.50;;;;;13.17;77.93;101176.63;5077202;27;45541;-64
2023/12/28 01:57:48;;;;;;;;;4.00;4.00;;;;;12.98;77.69;101142.47;5077486;28;45286;-64
2023/12/28 02:00:15;;;;;;;;;5.25;5.25;;;;;12.95;77.98;101147.06;5078499;28;45494;-64
2023/12/28 02:02:42;;;;;;;;;6.00;4.75;;;;;13.17;77.81;101184.69;5078481;28;46312;-64
2023/12/28 02:05:09;;;;;;;;;3.25;3.00;;;;;12.91;77.90;101146.31;5078537;28;45807;-64
2023/12/28 02:07:36;;;;;;;;;6.00;4.25;;;;;12.89;78.15;101152.63;5077374;28;45437;-64
2023/12/28 02:10:04;;;;;;;;;6.75;4.75;;;;;12.98;78.29;101166.59;5079905;28;45664;-64
2023/12/28 02:12:30;;;;;;;;;4.50;4.50;;;;;13.07;78.43;101184.13;5080682;28;48402;-64
2023/12/28 02:14:55;;;;;;;;;5.50;5.50;;;;;12.95;78.30;101163.13;5063584;28;45365;-64
2023/12/28 02:17:42;;;;;;;;;6.75;4.00;;;;;13.08;78.64;101190.34;5082222;28;45533;-64
2023/12/28 02:20:08;;;;;;;;;4.75;4.75;;;;;12.90;78.70;101155.25;5070272;28;45449;-64
2023/12/28 02:22:35;;;;;;;;;5.00;5.00;;;;;13.10;78.65;101200.09;5079799;28;46658;-65
2023/12/28 02:25:06;;;;;;;;;6.50;5.00;;;;;13.01;78.72;101195.06;5063720;28;45276;-64
2023/12/28 02:27:42;;;;;;;;;5.75;5.50;;;;;13.05;78.37;101187.81;5081674;28;45439;-64
2023/12/28 02:30:09;;;;;;;;;2.50;2.50;;;;;13.01;78.90;101183.47;5064843;28;45560;-64
2023/12/28 02:32:59;;;;;;;;;8.00;5.00;;;;;13.18;78.79;101220.38;5063575;28;46126;-64
2023/12/28 02:35:45;;;;;;;;;5.00;5.00;;;;;13.19;78.88;101223.03;5081635;28;45427;-64
2023/12/28 02:38:13;;;;;;;;;5.00;4.50;;;;;13.14;79.09;101217.81;5080705;28;45505;-64
2023/12/28 02:40:46;;;;;;;;;4.25;4.25;;;;;12.90;79.11;101176.69;5081372;27;45306;-64
2023/12/28 02:43:12;;;;;;;;;4.50;4.50;;;;;13.08;79.35;101199.28;5063145;28;48250;-64
2023/12/28 02:45:39;;;;;;;;;4.75;4.75;;;;;12.92;79.47;101176.63;5081427;28;45598;-64
2023/12/28 02:48:05;;;;;;;;;5.75;5.00;;;;;13.10;79.36;101209.97;5079999;28;45317;-64
2023/12/28 02:50:31;;;;;;;;;7.25;4.25;;;;;12.90;79.57;101182.06;5081538;28;45328;-65
2023/12/28 02:52:56;;;;;;;;;2.50;2.00;;;;;12.83;79.65;101172.50;5081195;28;46282;-64
2023/12/28 02:55:22;;;;;;;;;4.00;4.00;;;;;12.72;79.92;101146.06;5080906;28;45380;-64
2023/12/28 02:57:50;;;;;;;;;4.25;4.25;;;;;13.04;79.39;101208.34;5081529;28;45522;-64
2023/12/28 03:00:15;;;;;;;;;6.50;5.00;;;;;12.91;79.92;101191.84;5062994;28;45476;-64
2023/12/28 03:02:41;;;;;;;;;4.75;3.50;;;;;12.81;79.77;101170.78;5062920;28;48154;-64
2023/12/28 03:05:07;;;;;;;;;4.50;4.50;;;;;12.71;79.89;101156.81;5080133;28;45324;-64
2023/12/28 03:07:33;;;;;;;;;4.75;4.75;;;;;12.97;79.92;101214.88;5081273;28;45438;-64
2023/12/28 03:09:59;;;;;;;;;5.25;4.00;;;;;12.78;79.79;101171.78;5059539;28;45581;-65
2023/12/28 03:12:25;;;;;;;;;6.25;4.75;;;;;13.11;79.74;101219.72;5081215;28;45407;-64
2023/12/28 03:14:50;;;;;;;;;4.25;4.25;;;;;12.96;79.92;101194.34;5079675;28;45674;-64
2023/12/28 03:17:16;;;;;;;;;5.00;5.00;;;;;12.95;79.88;101190.81;5063031;28;45565;-64
2023/12/28 03:19:41;;;;;;;;;5.25;3.50;;;;;12.74;79.68;101154.91;5080884;27;45591;-64
2023/12/28 03:22:07;;;;;;;;;8.50;5.00;;;;;13.12;80.20;101213.44;5080000;27;45376;-64
2023/12/28 03:24:32;;;;;;;;;5.00;5.00;;;;;12.92;79.75;101179.31;5081044;28;45313;-64
2023/12/28 03:26:58;;;;;;;;;4.00;3.75;;;;;12.87;79.75;101168.75;5081046;28;45656;-64
2023/12/28 03:29:26;;;;;;;;;6.00;5.50;;;;;13.01;79.90;101180.78;5080880;28;45401;-64
2023/12/28 03:31:51;;;;;;;;;6.75;4.75;;;;;13.08;80.02;101198.41;5062583;28;45679;-64
2023/12/28 03:34:17;;;;;;;;;3.25;3.25;;;;;12.67;80.06;101156.06;5080730;28;45459;-64
2023/12/28 03:36:43;;;;;;;;;6.00;6.00;;;;;12.77;80.09;101180.72;5079633;28;45359;-64
2023/12/28 03:39:08;;;;;;;;;6.00;4.00;;;;;12.97;80.12;101225.59;5062200;28;45304;-64
2023/12/28 03:41:34;;;;;;;;;4.00;4.00;;;;;12.85;80.19;101202.78;5080638;28;46543;-64
2023/12/28 03:43:59;;;;;;;;;5.50;4.25;;;;;12.94;80.12;101205.13;5078102;28;45330;-65
2023/12/28 03:46:25;;;;;;;;;4.75;4.75;;;;;12.89;80.14;101200.84;5080629;28;45340;-64
2023/12/28 03:48:50;;;;;;;;;5.00;4.00;;;;;13.01;80.26;101207.59;5079962;28;45313;-64
2023/12/28 03:51:16;;;;;;;;;5.25;4.00;;;;;13.08;80.44;101222.50;5062292;28;47045;-64
2023/12/28 03:53:44;;;;;;;;;3.00;3.00;;;;;12.84;80.59;101176.91;5079673;27;45395;-64
2023/12/28 03:56:19;;;;;;;;;4.50;3.00;;;;;12.89;80.38;101185.66;5079986;28;45496;-64
2023/12/28 03:58:44;;;;;;;;;3.50;3.50;;;;;12.65;80.33;101149.03;5080344;28;45374;-64
2023/12/28 04:01:10;;;;;;;;;7.00;5.50;;;;;12.88;80.46;101178.56;5080300;28;46519;-64
2023/12/28 04:03:35;;;;;;;;;4.00;4.00;;;;;12.79;80.06;101162.78;5080271;28;45378;-64
2023/12/28 04:06:00;;;;;;;;;4.50;4.50;;;;;12.88;80.27;101174.97;5079658;28;45555;-65
2023/12/28 04:08:28;;;;;;;;;4.00;4.00;;;;;13.12;80.22;101206.28;5079138;28;45413;-65
2023/12/28 04:10:56;;;;;;;;;5.00;4.00;;;;;12.76;80.29;101157.53;5080197;28;45649;-64
2023/12/28 04:13:22;;;;;;;;;6.75;5.75;;;;;12.90;80.21;101181.19;5061921;28;45406;-65
2023/12/28 04:15:47;;;;;;;;;4.50;4.00;;;;;13.02;80.27;101194.13;5080350;28;45326;-64
2023/12/28 04:18:13;;;;;;;;;4.50;4.50;;;;;13.04;80.04;101200.31;5061873;28;45497;-64
2023/12/28 04:20:38;;;;;;;;;6.25;5.50;;;;;13.04;80.23;101200.31;5061738;28;46679;-64
2023/12/28 04:23:03;;;;;;;;;3.75;3.75;;;;;12.86;80.15;101172.34;5079709;28;45456;-64
2023/12/28 04:25:31;;;;;;;;;4.00;4.00;;;;;12.85;80.41;101167.94;5080343;28;45389;-64
2023/12/28 04:27:56;;;;;;;;;3.00;3.00;;;;;13.03;80.31;101201.25;5079943;28;45506;-64
2023/12/28 04:30:22;;;;;;;;;5.00;4.00;;;;;12.80;80.23;101167.22;5079914;28;46272;-64
2023/12/28 04:32:47;;;;;;;;;4.00;4.00;;;;;12.91;80.36;101189.16;5078606;27;45395;-64
2023/12/28 04:35:15;;;;;;;;;5.00;4.25;;;;;13.04;80.25;101191.41;5079002;28;45307;-64
2023/12/28 04:37:41;;;;;;;;;6.75;4.75;;;;;12.75;80.02;101156.66;5079690;27;45629;-65
2023/12/28 04:40:06;;;;;;;;;6.50;5.00;;;;;12.68;80.13;101140.84;5079521;28;46392;-64
2023/12/28 04:42:34;;;;;;;;;1.25;1.00;;;;;12.78;80.19;101164.59;5064547;28;45342;-64
2023/12/28 04:44:59;;;;;;;;;5.00;5.00;;;;;12.69;79.97;101154.19;5059719;28;45418;-64
2023/12/28 04:47:25;;;;;;;;;5.75;4.50;;;;;12.79;79.98;101170.81;5078063;28;45442;-64
2023/12/28 04:49:52;;;;;;;;;5.25;3.75;;;;;12.71;80.09;101162.19;5079745;28;46377;-64
2023/12/28 04:52:18;;;;;;;;;4.50;4.25;;;;;13.01;80.07;101210.28;5061081;28;45561;-65
2023/12/28 04:54:43;;;;;;;;;4.00;4.00;;;;;12.83;80.04;101187.66;5078595;28;45433;-64
2023/12/28 04:57:09;;;;;;;;;4.50;4.00;;;;;12.87;80.08;101187.50;5079223;28;45244;-64
2023/12/28 04:59:39;;;;;;;;;4.75;3.00;;;;;13.01;80.11;101205.78;5079338;28;45370;-64
2023/12/28 05:02:04;;;;;;;;;5.75;4.25;;;;;12.83;80.10;101167.13;5079363;27;45460;-64
2023/12/28 05:04:30;;;;;;;;;8.00;5.00;;;;;12.96;80.14;101202.38;5078498;28;45668;-64
2023/12/28 05:06:55;;;;;;;;;4.00;4.00;;;;;12.81;80.26;101177.00;5078331;27;45484;-64
2023/12/28 05:09:20;;;;;;;;;7.75;7.00;;;;;12.80;79.98;101180.63;5079281;28;46065;-64
2023/12/28 05:11:46;;;;;;;;;6.00;5.75;;;;;12.73;80.42;101171.94;5079245;27;45386;-64
2023/12/28 05:14:12;;;;;;;;;5.50;5.00;;;;;12.75;80.13;101175.41;5079399;27;45584;-64
2023/12/28 05:16:37;;;;;;;;;3.75;3.75;;;;;12.75;80.47;101180.78;5079283;28;45386;-64
2023/12/28 05:19:03;;;;;;;;;4.00;3.00;;;;;12.72;80.41;101178.19;5079069;28;46243;-64
2023/12/28 05:21:28;;;;;;;;;5.00;5.00;;;;;12.94;80.30;101210.47;5079051;28;45444;-64
2023/12/28 05:23:54;;;;;;;;;6.25;5.00;;;;;12.67;80.32;101168.59;5061055;28;45337;-64
2023/12/28 05:26:19;;;;;;;;;6.75;5.75;;;;;12.91;80.48;101209.72;5079056;28;45471;-64
2023/12/28 05:28:47;;;;;;;;;3.75;2.00;;;;;12.76;80.53;101181.63;5078855;28;45470;-64
2023/12/28 05:31:13;;;;;;;;;4.50;3.50;;;;;12.90;80.72;101216.88;5079319;28;45546;-64
2023/12/28 05:33:38;;;;;;;;;5.00;4.25;;;;;12.95;80.54;101219.41;5079163;28;45489;-64
2023/12/28 05:36:07;;;;;;;;;5.50;4.00;;;;;12.91;80.73;101213.28;5077398;28;45512;-64
2023/12/28 05:38:33;;;;;;;;;5.75;4.00;;;;;12.79;80.67;101189.59;5077576;28;45484;-64
2023/12/28 05:40:59;;;;;;;;;5.75;4.25;;;;;12.69;80.45;101172.06;5078673;28;45338;-64
2023/12/28 05:43:24;;;;;;;;;4.00;4.00;;;;;12.73;80.55;101171.94;5060797;28;45423;-64
2023/12/28 05:45:50;;;;;;;;;4.00;4.00;;;;;12.64;80.82;101163.31;5082638;28;45492;-64
2023/12/28 05:48:15;;;;;;;;;4.75;4.00;;;;;12.71;80.82;101180.94;5080709;28;46386;-64
2023/12/28 05:50:40;;;;;;;;;5.25;5.25;;;;;12.57;80.81;101163.53;5082426;28;45349;-64
2023/12/28 05:53:06;;;;;;;;;5.25;4.00;;;;;12.73;80.64;101190.69;5082337;27;45845;-64
2023/12/28 05:55:31;;;;;;;;;6.00;6.00;;;;;12.68;80.95;101194.41;5063550;28;45373;-64
2023/12/28 05:57:57;;;;;;;;;5.00;5.00;;;;;12.62;80.96;101186.63;5063096;28;47569;-64
2023/12/28 06:00:22;;;;;;;;;4.50;4.50;;;;;12.63;81.16;101186.56;5078944;28;45270;-64
2023/12/28 06:02:51;;;;;;;;;7.25;4.50;;;;;12.69;80.85;101197.06;5082300;28;45499;-64
2023/12/28 06:05:17;;;;;;;;;6.25;4.75;;;;;12.48;81.16;101165.63;5063879;28;45714;-64
2023/12/28 06:07:43;;;;;;;;;6.00;5.00;;;;;12.59;81.14;101200.97;5081961;28;46029;-64
2023/12/28 06:10:09;;;;;;;;;5.00;5.00;;;;;12.58;81.27;101207.28;5082126;28;45359;-64
2023/12/28 06:12:36;;;;;;;;;6.50;4.75;;;;;12.58;81.28;101202.78;5082130;27;45482;-64
2023/12/28 06:15:02;;;;;;;;;5.00;4.25;;;;;12.58;81.17;101208.13;5082192;27;45538;-64
2023/12/28 06:17:29;;;;;;;;;7.75;4.00;;;;;12.48;81.14;101192.41;5081866;28;46372;-64
2023/12/28 06:19:55;;;;;;;;;5.75;4.75;;;;;12.74;81.26;101243.31;5081932;27;45700;-64
2023/12/28 06:22:20;;;;;;;;;4.50;4.50;;;;;12.58;81.13;101210.81;5071454;28;45685;-64
2023/12/28 06:24:46;;;;;;;;;4.00;4.00;;;;;12.56;81.22;101206.44;5080787;28;45948;-64
2023/12/28 06:27:11;;;;;;;;;3.00;2.00;;;;;12.79;81.19;101244.03;5081593;27;45391;-64
2023/12/28 06:29:39;;;;;;;;;2.75;2.75;;;;;12.58;81.08;101221.53;5081979;28;45573;-64
2023/12/28 06:32:05;;;;;;;;;6.00;5.00;;;;;12.65;81.22;101237.41;5080772;28;46631;-64
2023/12/28 06:34:31;;;;;;;;;5.25;5.00;;;;;12.64;81.03;101232.97;5080762;27;46995;-64
2023/12/28 06:36:56;;;;;;;;;4.00;4.00;;;;;12.56;81.11;101215.34;5081506;28;45967;-64
2023/12/28 06:39:21;;;;;;;;;5.25;4.00;;;;;12.53;81.09;101220.81;5081597;27;45414;-65
2023/12/28 06:41:48;;;;;;;;;5.50;4.00;;;;;12.75;80.99;101257.59;5063135;28;45304;-64
2023/12/28 06:44:14;;;;;;;;;7.75;6.25;;;;;12.49;81.08;101218.28;5081753;28;45431;-64
2023/12/28 06:46:40;;;;;;;;;4.25;4.25;;;;;12.56;81.27;101231.41;5081093;27;45879;-65
2023/12/28 06:49:05;;;;;;;;;6.75;5.25;;;;;12.56;81.52;101239.47;5080140;28;45358;-64
2023/12/28 06:51:31;;;;;;;;;5.75;5.75;;;;;12.51;81.39;101224.44;5081393;27;45336;-64
2023/12/28 06:53:57;;;;;;;;;4.00;2.50;;;;;12.71;81.62;101267.53;5061792;28;45633;-64
2023/12/28 06:56:22;;;;;;;;;5.50;3.25;;;;;12.65;81.63;101258.84;5079941;28;46103;-64
2023/12/28 06:58:48;;;;;;;;;6.00;6.00;;;;;12.46;81.47;101224.59;5081408;28;45315;-64
2023/12/28 07:01:13;;;;;;;;;7.50;4.50;;;;;12.40;82.08;101212.28;5078260;28;45345;-64
2023/12/28 07:03:39;;;;;;;;;7.00;5.00;;;;;12.48;82.04;101230.78;5081370;28;45329;-64
2023/12/28 07:06:05;;;;;;;;;4.00;4.00;;;;;12.49;82.10;101235.19;5081109;27;46145;-65
2023/12/28 07:08:30;;;;;;;;;5.00;5.00;;;;;12.38;82.29;101216.81;5081025;28;45334;-64
2023/12/28 07:10:57;;;;;;;;;4.50;4.50;;;;;12.43;82.16;101230.06;5062262;28;45511;-64
2023/12/28 07:13:22;;;;;;;;;4.00;4.00;;;;;12.39;82.09;101223.91;5081259;28;45399;-64
2023/12/28 07:15:48;;;;;;;;;5.25;4.50;;;;;12.48;82.21;101232.56;5077902;28;45793;-65
2023/12/28 07:18:13;;;;;;;;;7.00;5.75;;;;;12.43;81.97;101232.75;5060354;28;45379;-64
2023/12/28 07:20:39;;;;;;;;;6.75;5.25;;;;;12.37;82.32;101217.75;5079356;28;45524;-64
2023/12/28 07:23:06;;;;;;;;;7.75;5.50;;;;;12.71;82.13;101269.31;5062286;28;45540;-67
2023/12/28 07:25:33;;;;;;;;;7.75;6.50;;;;;12.50;82.31;101228.94;5073453;28;48005;-67
2023/12/28 07:27:58;;;;;;;;;5.75;3.50;;;;;12.37;82.38;101214.19;5080302;27;45461;-67
2023/12/28 07:30:23;;;;;;;;;7.50;6.25;;;;;12.41;82.58;101223.88;5062528;28;45541;-67
2023/12/28 07:32:49;;;;;;;;;5.00;5.00;;;;;12.56;82.56;101247.50;5079591;28;45314;-68
2023/12/28 07:35:15;;;;;;;;;4.00;4.00;;;;;12.41;83.08;101226.53;5062125;28;46856;-67
2023/12/28 07:37:40;;;;;;;;;7.50;7.25;;;;;12.43;82.52;101232.75;5079830;28;45328;-67
2023/12/28 07:40:06;;;;;;;;;6.00;5.00;;;;;12.66;82.67;101265.91;5062298;28;45488;-67
2023/12/28 07:42:32;;;;;;;;;6.75;5.00;;;;;12.44;82.60;101226.44;5080189;27;45422;-67
2023/12/28 07:44:57;;;;;;;;;4.00;4.00;;;;;12.65;82.96;101267.72;5079903;28;45416;-67
2023/12/28 07:47:23;;;;;;;;;8.50;6.75;;;;;12.44;83.23;101242.50;5059768;28;45429;-67
2023/12/28 07:49:48;;;;;;;;;6.25;6.25;;;;;12.52;83.11;101255.66;5079292;28;45333;-67
2023/12/28 07:52:14;;;;;;;;;6.50;6.50;;;;;12.64;83.36;101274.00;5079593;28;45538;-67
2023/12/28 07:54:39;;;;;;;;;8.00;6.25;;;;;12.45;83.33;101256.78;5077525;28;45488;-67
2023/12/28 07:57:05;;;;;;;;;5.25;4.75;;;;;12.45;83.01;101255.00;5079476;28;45560;-67
2023/12/28 07:59:30;;;;;;;;;5.50;4.50;;;;;12.61;83.50;101274.09;5080444;28;45730;-67
2023/12/28 08:01:58;;;;;;;;;5.00;5.00;;;;;12.42;83.50;101239.88;5078956;27;45368;-67
2023/12/28 08:04:24;;;;;;;;;5.25;5.00;;;;;12.37;83.60;101231.13;5078994;28;45342;-66
2023/12/28 08:06:49;;;;;;;;;4.50;4.00;;;;;12.68;83.64;101275.66;5077973;27;45414;-67
2023/12/28 08:09:14;;;;;;;;;6.50;5.00;;;;;12.45;83.42;101246.94;5078790;27;45610;-67
2023/12/28 08:11:40;;;;;;;;;6.00;5.00;;;;;12.69;83.57;101276.53;5058462;28;46139;-68
2023/12/28 08:14:05;;;;;;;;;5.50;5.50;;;;;12.47;83.80;101247.78;5079942;28;45521;-68
2023/12/28 08:16:31;;;;;;;;;8.25;5.25;;;;;12.47;83.76;101252.25;5075825;27;45265;-65
2023/12/28 08:18:57;;;;;;;;;5.50;4.00;;;;;12.54;83.69;101257.34;5078565;28;45339;-65
2023/12/28 08:21:22;;;;;;;;;5.25;4.25;;;;;12.53;83.73;101255.63;5077265;27;45502;-65
2023/12/28 08:23:48;;;;;;;;;5.00;5.00;;;;;12.43;83.69;101248.81;5079582;28;45454;-65
2023/12/28 08:26:15;;;;;;;;;4.00;4.00;;;;;12.74;83.97;101296.88;5078398;28;45425;-65
2023/12/28 08:28:43;;;;;;;;;4.00;4.00;;;;;12.55;83.71;101268.97;5061424;28;45469;-65
2023/12/28 08:31:09;;;;;;;;;5.00;4.00;;;;;12.60;84.02;101283.94;5072440;28;45581;-65
2023/12/28 08:33:38;;;;;;;;;3.25;3.00;;;;;12.67;83.72;101283.75;5068491;27;46179;-65
2023/12/28 08:36:06;;;;;;;;;4.75;4.75;;;;;12.65;83.51;101280.25;5068400;28;46125;-65
2023/12/28 08:38:32;;;;;;;;;7.50;4.00;;;;;12.58;83.39;101267.06;5056017;28;45527;-65
2023/12/28 08:40:57;;;;;;;;;6.00;4.25;;;;;12.64;83.56;101275.81;5076916;28;45462;-65
2023/12/28 08:43:23;;;;;;;;;6.50;4.00;;;;;12.59;83.61;101268.78;5077081;27;45528;-65
2023/12/28 08:45:48;;;;;;;;;4.00;3.25;;;;;12.51;83.85;101244.09;5078084;27;45422;-65
2023/12/28 08:48:14;;;;;;;;;3.75;3.00;;;;;12.45;83.58;101236.25;5076270;28;45648;-65
2023/12/28 08:50:39;;;;;;;;;4.00;4.00;;;;;12.71;83.82;101275.56;5077734;28;45412;-65
2023/12/28 08:53:07;;;;;;;;;2.75;2.75;;;;;12.73;83.98;101289.78;5061935;28;47377;-65
2023/12/28 08:55:33;;;;;;;;;4.75;3.50;;;;;12.53;83.83;101258.28;5077370;28;45331;-65
2023/12/28 08:57:59;;;;;;;;;5.75;4.75;;;;;12.53;84.00;101268.09;5060590;28;45749;-65
2023/12/28 09:00:24;;;;;;;;;3.75;2.00;;;;;12.61;83.54;101276.78;5079099;28;46197;-65
2023/12/28 09:02:50;;;;;;;;;4.75;3.75;;;;;12.75;83.75;101300.47;5084828;27;45496;-65
2023/12/28 09:05:15;;;;;;;;;3.00;3.00;;;;;12.77;83.83;101301.28;5060593;28;45458;-65
2023/12/28 09:07:44;;;;;;;;;5.25;4.00;;;;;12.44;83.82;101253.22;5077480;28;45541;-65
2023/12/28 09:10:13;;;;;;;;;5.50;5.50;;;;;12.77;83.68;101310.19;5059861;28;45544;-65
2023/12/28 09:12:41;;;;;;;;;3.25;3.25;;;;;12.59;83.90;101279.50;5079226;27;46263;-65
2023/12/28 09:15:07;;;;;;;;;3.75;3.00;;;;;12.55;83.62;101279.66;5057393;28;45394;-65
2023/12/28 09:17:35;;;;;;;;;2.50;2.50;;;;;12.83;83.65;101319.84;5056098;28;45408;-65
2023/12/28 09:20:06;;;;;;;;;5.25;4.75;;;;;12.80;83.74;101319.94;5077950;27;45529;-65
2023/12/28 09:22:31;;;;;;;;;3.75;2.50;;;;;12.41;83.63;101264.03;5078078;28;45466;-65
2023/12/28 09:24:59;;;;;;;;;5.50;4.50;;;;;12.65;83.55;101299.88;5078543;27;45354;-65
2023/12/28 09:27:25;;;;;;;;;6.25;4.25;;;;;12.69;83.36;101297.97;5060459;28;45382;-65
2023/12/28 09:29:52;;;;;;;;;3.00;3.00;;;;;12.68;83.67;101298.88;5060614;28;45564;-65
2023/12/28 09:32:18;;;;;;;;;6.00;4.00;;;;;12.51;83.44;101270.88;5077151;28;47410;-65
2023/12/28 09:34:43;;;;;;;;;4.00;4.00;;;;;12.64;83.37;101290.06;5078880;27;45321;-65
2023/12/28 09:37:11;;;;;;;;;3.00;3.00;;;;;12.65;83.41;101304.38;5060390;28;45506;-65
2023/12/28 09:39:37;;;;;;;;;7.25;4.00;;;;;12.79;83.39;101329.75;5078216;27;45671;-65
2023/12/28 09:42:14;;;;;;;;;3.00;3.00;;;;;12.81;83.51;101331.53;5060128;28;47064;-65
2023/12/28 09:44:43;;;;;;;;;5.25;4.75;;;;;12.77;83.44;101336.97;5056779;28;45378;-65
2023/12/28 09:47:12;;;;;;;;;4.25;4.25;;;;;12.59;83.66;101306.28;5076866;28;45528;-65
2023/12/28 09:49:39;;;;;;;;;4.75;4.75;;;;;12.64;83.46;101313.31;5057999;28;45881;-65
2023/12/28 09:52:05;;;;;;;;;4.00;4.00;;;;;12.57;83.39;101300.09;5077193;28;46302;-65
2023/12/28 09:54:31;;;;;;;;;7.00;6.50;;;;;12.84;83.48;101351.03;5076529;27;45569;-65
2023/12/28 09:56:57;;;;;;;;;6.00;4.50;;;;;12.72;83.42;101330.03;5059623;28;45499;-65
2023/12/28 09:59:24;;;;;;;;;4.00;4.00;;;;;12.63;83.11;101309.78;5078197;28;45364;-65
2023/12/28 10:01:56;;;;;;;;;4.25;4.25;;;;;12.48;83.33;101280.78;5075558;28;45542;-65
2023/12/28 10:04:21;;;;;;;;;5.75;5.50;;;;;12.54;83.27;101292.16;5076728;27;45240;-65
2023/12/28 10:06:47;;;;;;;;;5.25;4.75;;;;;12.66;83.30;101312.31;5075670;28;45463;-65
2023/12/28 10:09:13;;;;;;;;;4.00;4.00;;;;;12.83;83.02;101329.66;5061300;28;45420;-65
2023/12/28 10:11:38;;;;;;;;;4.00;4.00;;;;;12.82;83.00;101339.50;5077287;28;45408;-65
2023/12/28 10:14:04;;;;;;;;;10.00;6.50;;;;;12.76;82.90;101318.25;5058743;28;45590;-65
2023/12/28 10:16:30;;;;;;;;;6.00;5.00;;;;;12.81;82.77;101320.81;5076013;27;45573;-65
2023/12/28 10:18:57;;;;;;;;;6.25;5.00;;;;;12.90;83.23;101337.47;5077679;28;45444;-65
2023/12/28 10:21:23;;;;;;;;;4.00;3.50;;;;;12.77;83.07;101307.50;5076606;28;45662;-65
2023/12/28 10:23:49;;;;;;;;;6.25;5.00;;;;;12.73;83.15;101295.16;5053027;28;45504;-65
2023/12/28 10:26:14;;;;;;;;;6.00;4.75;;;;;12.58;83.27;101277.78;5068141;28;45319;-65
2023/12/28 10:28:39;;;;;;;;;4.50;4.50;;;;;12.88;83.07;101308.94;5076280;28;45315;-65
2023/12/28 10:31:07;;;;;;;;;5.00;4.00;;;;;12.91;82.96;101307.06;5078273;28;53704;-65
2023/12/28 10:33:38;;;;;;;;;4.50;4.50;;;;;12.96;82.81;101315.84;5077718;27;45826;-65
2023/12/28 10:36:06;;;;;;;;;4.00;4.00;;;;;12.79;82.85;101281.53;5063087;28;45462;-65
2023/12/28 10:38:38;;;;;;;;;4.25;4.25;;;;;13.03;82.52;101319.19;5081025;28;45283;-65
2023/12/28 10:41:06;;;;;;;;;6.00;5.00;;;;;13.01;82.34;101322.81;5080905;28;46294;-65
2023/12/28 10:43:49;;;;;;;;;5.25;5.25;;;;;12.72;82.52;101271.09;5076431;28;45985;-65
2023/12/28 10:46:39;;;;;;;;;5.00;5.00;;;;;12.99;82.90;101312.16;5078082;27;45247;-65
2023/12/28 10:49:12;;;;;;;;;5.75;4.50;;;;;12.79;82.64;101294.06;5079532;28;45415;-65
2023/12/28 10:51:43;;;;;;;;;5.50;4.00;;;;;12.80;82.61;101290.47;5080164;27;45637;-64
2023/12/28 10:54:31;;;;;;;;;4.50;4.50;;;;;12.97;82.59;101319.38;5077035;28;45382;-65
2023/12/28 10:57:27;;;;;;;;;;;;;;;;;;;;;
2023/12/28 11:00:13;;;;;;;;;3.25;3.25;;;;;13.04;82.38;101314.69;5079972;28;72283;-65
2023/12/28 11:02:51;;;;;;;;;4.50;4.50;;;;;12.81;82.26;101273.44;5080254;28;45683;-64
2023/12/28 11:05:28;;;;;;;;;4.75;4.75;;;;;12.91;82.55;101274.91;5060911;28;45458;-64
2023/12/28 11:08:02;;;;;;;;;6.75;5.00;;;;;13.04;82.35;101298.59;5058879;28;45521;-64
2023/12/28 11:10:30;;;;;;;;;5.25;4.75;;;;;12.83;82.16;101241.25;5077830;28;45745;-65
2023/12/28 11:12:57;;;;;;;;;5.75;4.00;;;;;12.78;82.01;101212.81;5078902;28;45462;-65
2023/12/28 11:15:24;;;;;;;;;5.00;5.00;;;;;12.82;81.89;101229.66;5080250;27;45535;-65
2023/12/28 11:17:52;;;;;;;;;6.50;6.00;;;;;12.81;81.90;101227.91;5061319;28;45804;-65
2023/12/28 11:20:19;;;;;;;;;5.75;5.00;;;;;12.90;81.61;101235.63;5061903;28;45512;-65
2023/12/28 11:22:53;;;;;;;;;7.00;6.50;;;;;12.76;81.41;101212.00;5079219;28;46861;-65
2023/12/28 11:25:19;;;;;;;;;4.75;3.00;;;;;12.99;81.50;101247.84;5078695;27;45747;-65